sensor_id;sensor_type;location;lat;lon;timestamp;P1;durP1;ratioP1;P2;durP2;ratioP2
71626;SDS011;59475;52.464;13.590;2022-10-31T00:00:16;78.57;;;29.23;;
71626;SDS011;59475;52.464;13.590;2022-10-31T00:02:42;70.60;;;27.85;;
71626;SDS011;59475;52.464;13.590;2022-10-31T00:05:07;66.73;;;25.83;;
71626;SDS011;59475;52.464;13.590;2022-10-31T00:07:33;62.93;;;23.20;;
71626;SDS011;59475;52.464;13.590;2022-10-31T00:09:58;61.70;;;23.30;;
71626;SDS011;59475;52.464;13.590;2022-10-31T00:12:23;61.87;;;23.87;;
71626;SDS011;59475;52.464;13.590;2022-10-31T00:14:49;61.72;;;23.05;;
71626;SDS011;59475;52.464;13.590;2022-10-31T00:17:14;47.60;;;20.63;;
71626;SDS011;59475;52.464;13.590;2022-10-31T00:19:39;48.60;;;20.53;;
71626;SDS011;59475;52.464;13.590;2022-10-31T00:22:05;41.47;;;17.53;;
71626;SDS011;59475;52.464;13.590;2022-10-31T00:24:30;36.37;;;16.90;;
71626;SDS011;59475;52.464;13.590;2022-10-31T00:26:55;33.50;;;17.30;;
71626;SDS011;59475;52.464;13.590;2022-10-31T00:29:21;38.30;;;18.05;;
71626;SDS011;59475;52.464;13.590;2022-10-31T00:31:46;33.93;;;16.63;;
71626;SDS011;59475;52.464;13.590;2022-10-31T00:34:11;36.07;;;16.73;;
71626;SDS011;59475;52.464;13.590;2022-10-31T00:36:37;33.90;;;17.13;;
71626;SDS011;59475;52.464;13.590;2022-10-31T00:39:02;34.43;;;16.23;;
71626;SDS011;59475;52.464;13.590;2022-10-31T00:41:27;33.90;;;16.37;;
71626;SDS011;59475;52.464;13.590;2022-10-31T00:43:54;29.48;;;15.30;;
71626;SDS011;59475;52.464;13.590;2022-10-31T00:46:20;25.97;;;14.27;;
71626;SDS011;59475;52.464;13.590;2022-10-31T00:48:45;23.60;;;12.98;;
71626;SDS011;59475;52.464;13.590;2022-10-31T00:51:10;18.50;;;11.77;;
71626;SDS011;59475;52.464;13.590;2022-10-31T00:53:36;21.00;;;11.77;;
71626;SDS011;59475;52.464;13.590;2022-10-31T00:56:01;24.10;;;11.97;;
71626;SDS011;59475;52.464;13.590;2022-10-31T00:58:27;22.25;;;12.77;;
71626;SDS011;59475;52.464;13.590;2022-10-31T01:00:53;20.13;;;12.03;;
71626;SDS011;59475;52.464;13.590;2022-10-31T01:03:22;24.42;;;12.77;;
71626;SDS011;59475;52.464;13.590;2022-10-31T01:06:01;20.02;;;11.55;;
71626;SDS011;59475;52.464;13.590;2022-10-31T01:08:35;21.00;;;12.68;;
71626;SDS011;59475;52.464;13.590;2022-10-31T01:11:06;23.40;;;12.87;;
71626;SDS011;59475;52.464;13.590;2022-10-31T01:13:34;21.20;;;12.50;;
71626;SDS011;59475;52.464;13.590;2022-10-31T01:16:00;21.35;;;11.82;;
71626;SDS011;59475;52.464;13.590;2022-10-31T01:18:27;20.63;;;11.60;;
71626;SDS011;59475;52.464;13.590;2022-10-31T01:20:59;20.20;;;11.27;;
71626;SDS011;59475;52.464;13.590;2022-10-31T01:23:28;22.10;;;11.60;;
71626;SDS011;59475;52.464;13.590;2022-10-31T01:26:07;21.83;;;12.90;;
71626;SDS011;59475;52.464;13.590;2022-10-31T01:28:39;23.87;;;13.20;;
71626;SDS011;59475;52.464;13.590;2022-10-31T01:31:09;23.20;;;12.32;;
71626;SDS011;59475;52.464;13.590;2022-10-31T01:33:35;27.90;;;12.67;;
71626;SDS011;59475;52.464;13.590;2022-10-31T01:36:01;18.60;;;12.77;;
71626;SDS011;59475;52.464;13.590;2022-10-31T01:38:37;21.17;;;11.77;;
71626;SDS011;59475;52.464;13.590;2022-10-31T01:41:02;24.17;;;12.30;;
71626;SDS011;59475;52.464;13.590;2022-10-31T01:46:19;20.85;;;11.20;;
71626;SDS011;59475;52.464;13.590;2022-10-31T01:48:48;22.15;;;11.75;;
71626;SDS011;59475;52.464;13.590;2022-10-31T01:51:14;22.40;;;10.93;;
71626;SDS011;59475;52.464;13.590;2022-10-31T01:53:43;18.70;;;11.35;;
71626;SDS011;59475;52.464;13.590;2022-10-31T01:56:10;19.93;;;12.03;;
71626;SDS011;59475;52.464;13.590;2022-10-31T01:58:35;21.40;;;11.82;;
71626;SDS011;59475;52.464;13.590;2022-10-31T02:01:01;26.57;;;11.50;;
71626;SDS011;59475;52.464;13.590;2022-10-31T02:03:26;17.80;;;11.95;;
71626;SDS011;59475;52.464;13.590;2022-10-31T02:05:53;21.23;;;10.82;;
71626;SDS011;59475;52.464;13.590;2022-10-31T02:08:23;20.13;;;11.90;;
71626;SDS011;59475;52.464;13.590;2022-10-31T02:10:52;20.15;;;11.27;;
71626;SDS011;59475;52.464;13.590;2022-10-31T02:13:19;18.77;;;12.15;;
71626;SDS011;59475;52.464;13.590;2022-10-31T02:15:45;22.70;;;12.07;;
71626;SDS011;59475;52.464;13.590;2022-10-31T02:18:14;25.80;;;12.40;;
71626;SDS011;59475;52.464;13.590;2022-10-31T02:26:52;18.60;;;11.80;;
71626;SDS011;59475;52.464;13.590;2022-10-31T02:37:57;18.15;;;10.65;;
71626;SDS011;59475;52.464;13.590;2022-10-31T02:40:32;17.50;;;10.85;;
71626;SDS011;59475;52.464;13.590;2022-10-31T02:43:09;22.03;;;11.17;;
71626;SDS011;59475;52.464;13.590;2022-10-31T02:48:31;18.70;;;10.93;;
71626;SDS011;59475;52.464;13.590;2022-10-31T02:51:02;19.73;;;11.07;;
71626;SDS011;59475;52.464;13.590;2022-10-31T02:53:32;15.95;;;10.98;;
71626;SDS011;59475;52.464;13.590;2022-10-31T02:56:00;19.27;;;12.37;;
71626;SDS011;59475;52.464;13.590;2022-10-31T02:58:30;16.60;;;11.25;;
71626;SDS011;59475;52.464;13.590;2022-10-31T03:08:59;17.20;;;11.30;;
71626;SDS011;59475;52.464;13.590;2022-10-31T03:11:36;19.63;;;11.65;;
71626;SDS011;59475;52.464;13.590;2022-10-31T03:14:17;16.33;;;11.35;;
71626;SDS011;59475;52.464;13.590;2022-10-31T03:16:48;18.55;;;11.93;;
71626;SDS011;59475;52.464;13.590;2022-10-31T03:19:16;20.02;;;11.57;;
71626;SDS011;59475;52.464;13.590;2022-10-31T03:21:47;18.37;;;11.67;;
71626;SDS011;59475;52.464;13.590;2022-10-31T03:24:36;17.73;;;11.45;;
71626;SDS011;59475;52.464;13.590;2022-10-31T03:27:03;17.75;;;11.75;;
71626;SDS011;59475;52.464;13.590;2022-10-31T03:29:32;18.88;;;11.68;;
71626;SDS011;59475;52.464;13.590;2022-10-31T03:32:02;18.75;;;11.55;;
71626;SDS011;59475;52.464;13.590;2022-10-31T03:34:31;19.83;;;12.80;;
71626;SDS011;59475;52.464;13.590;2022-10-31T03:36:59;21.55;;;11.65;;
71626;SDS011;59475;52.464;13.590;2022-10-31T03:39:26;17.73;;;12.07;;
71626;SDS011;59475;52.464;13.590;2022-10-31T03:41:54;17.27;;;12.32;;
71626;SDS011;59475;52.464;13.590;2022-10-31T03:44:32;18.73;;;12.02;;
71626;SDS011;59475;52.464;13.590;2022-10-31T03:47:00;19.33;;;12.27;;
71626;SDS011;59475;52.464;13.590;2022-10-31T03:49:27;16.90;;;12.63;;
71626;SDS011;59475;52.464;13.590;2022-10-31T03:51:58;20.05;;;12.23;;
71626;SDS011;59475;52.464;13.590;2022-10-31T03:59:42;18.47;;;12.67;;
71626;SDS011;59475;52.464;13.590;2022-10-31T04:02:26;16.90;;;11.10;;
71626;SDS011;59475;52.464;13.590;2022-10-31T04:04:56;19.30;;;12.30;;
71626;SDS011;59475;52.464;13.590;2022-10-31T04:07:22;19.10;;;12.88;;
71626;SDS011;59475;52.464;13.590;2022-10-31T04:09:53;19.00;;;11.60;;
71626;SDS011;59475;52.464;13.590;2022-10-31T04:12:18;18.13;;;11.80;;
71626;SDS011;59475;52.464;13.590;2022-10-31T04:14:47;15.77;;;11.73;;
71626;SDS011;59475;52.464;13.590;2022-10-31T04:17:14;18.10;;;11.70;;
71626;SDS011;59475;52.464;13.590;2022-10-31T04:19:42;18.65;;;11.55;;
71626;SDS011;59475;52.464;13.590;2022-10-31T04:22:07;21.07;;;12.17;;
71626;SDS011;59475;52.464;13.590;2022-10-31T04:24:33;23.30;;;12.45;;
71626;SDS011;59475;52.464;13.590;2022-10-31T04:26:58;19.00;;;12.10;;
71626;SDS011;59475;52.464;13.590;2022-10-31T04:29:23;21.13;;;12.30;;
71626;SDS011;59475;52.464;13.590;2022-10-31T04:31:49;18.23;;;12.47;;
71626;SDS011;59475;52.464;13.590;2022-10-31T04:34:14;17.27;;;11.77;;
71626;SDS011;59475;52.464;13.590;2022-10-31T04:36:39;18.60;;;11.60;;
71626;SDS011;59475;52.464;13.590;2022-10-31T04:39:05;17.85;;;11.55;;
71626;SDS011;59475;52.464;13.590;2022-10-31T04:41:30;18.03;;;12.40;;
71626;SDS011;59475;52.464;13.590;2022-10-31T04:43:55;18.87;;;12.70;;
71626;SDS011;59475;52.464;13.590;2022-10-31T04:46:21;19.83;;;12.30;;
71626;SDS011;59475;52.464;13.590;2022-10-31T04:48:46;17.03;;;12.33;;
71626;SDS011;59475;52.464;13.590;2022-10-31T04:51:11;21.10;;;12.23;;
71626;SDS011;59475;52.464;13.590;2022-10-31T04:53:37;17.33;;;12.70;;
71626;SDS011;59475;52.464;13.590;2022-10-31T04:56:02;19.33;;;12.23;;
71626;SDS011;59475;52.464;13.590;2022-10-31T04:58:27;14.25;;;10.80;;
71626;SDS011;59475;52.464;13.590;2022-10-31T05:00:53;19.37;;;12.47;;
71626;SDS011;59475;52.464;13.590;2022-10-31T05:03:19;14.88;;;11.65;;
71626;SDS011;59475;52.464;13.590;2022-10-31T05:05:45;17.43;;;12.80;;
71626;SDS011;59475;52.464;13.590;2022-10-31T05:08:10;19.00;;;12.07;;
71626;SDS011;59475;52.464;13.590;2022-10-31T05:10:35;19.53;;;13.00;;
71626;SDS011;59475;52.464;13.590;2022-10-31T05:13:02;18.60;;;12.35;;
71626;SDS011;59475;52.464;13.590;2022-10-31T05:15:28;19.43;;;12.30;;
71626;SDS011;59475;52.464;13.590;2022-10-31T05:17:54;21.73;;;13.07;;
71626;SDS011;59475;52.464;13.590;2022-10-31T05:20:21;20.77;;;13.27;;
71626;SDS011;59475;52.464;13.590;2022-10-31T05:22:49;16.27;;;11.90;;
71626;SDS011;59475;52.464;13.590;2022-10-31T05:25:17;18.70;;;12.77;;
71626;SDS011;59475;52.464;13.590;2022-10-31T05:27:44;22.45;;;13.38;;
71626;SDS011;59475;52.464;13.590;2022-10-31T05:30:11;18.15;;;13.15;;
71626;SDS011;59475;52.464;13.590;2022-10-31T05:32:38;22.17;;;12.73;;
71626;SDS011;59475;52.464;13.590;2022-10-31T05:35:04;20.13;;;12.43;;
71626;SDS011;59475;52.464;13.590;2022-10-31T05:37:33;19.80;;;12.20;;
71626;SDS011;59475;52.464;13.590;2022-10-31T05:39:59;19.85;;;13.00;;
71626;SDS011;59475;52.464;13.590;2022-10-31T05:42:24;19.93;;;12.30;;
71626;SDS011;59475;52.464;13.590;2022-10-31T05:44:49;20.10;;;12.77;;
71626;SDS011;59475;52.464;13.590;2022-10-31T05:47:16;18.73;;;12.27;;
71626;SDS011;59475;52.464;13.590;2022-10-31T05:49:41;18.93;;;12.40;;
71626;SDS011;59475;52.464;13.590;2022-10-31T05:52:06;17.67;;;11.80;;
71626;SDS011;59475;52.464;13.590;2022-10-31T05:54:31;19.43;;;11.83;;
71626;SDS011;59475;52.464;13.590;2022-10-31T05:56:57;20.40;;;11.07;;
71626;SDS011;59475;52.464;13.590;2022-10-31T05:59:22;18.70;;;11.87;;
71626;SDS011;59475;52.464;13.590;2022-10-31T06:01:47;21.83;;;11.70;;
71626;SDS011;59475;52.464;13.590;2022-10-31T06:04:13;15.80;;;12.33;;
71626;SDS011;59475;52.464;13.590;2022-10-31T06:06:38;22.17;;;12.03;;
71626;SDS011;59475;52.464;13.590;2022-10-31T06:09:03;19.37;;;12.73;;
71626;SDS011;59475;52.464;13.590;2022-10-31T06:11:29;21.90;;;11.47;;
71626;SDS011;59475;52.464;13.590;2022-10-31T06:13:54;20.90;;;11.63;;
71626;SDS011;59475;52.464;13.590;2022-10-31T06:16:19;21.20;;;12.23;;
71626;SDS011;59475;52.464;13.590;2022-10-31T06:18:45;18.13;;;11.83;;
71626;SDS011;59475;52.464;13.590;2022-10-31T06:21:11;19.83;;;13.80;;
71626;SDS011;59475;52.464;13.590;2022-10-31T06:23:36;14.90;;;11.37;;
71626;SDS011;59475;52.464;13.590;2022-10-31T06:26:01;20.03;;;12.37;;
71626;SDS011;59475;52.464;13.590;2022-10-31T06:28:28;22.27;;;12.02;;
71626;SDS011;59475;52.464;13.590;2022-10-31T06:30:53;22.83;;;13.07;;
71626;SDS011;59475;52.464;13.590;2022-10-31T06:33:18;20.53;;;12.83;;
71626;SDS011;59475;52.464;13.590;2022-10-31T06:35:47;19.90;;;12.07;;
71626;SDS011;59475;52.464;13.590;2022-10-31T06:38:13;17.70;;;12.52;;
71626;SDS011;59475;52.464;13.590;2022-10-31T06:40:39;16.48;;;11.75;;
71626;SDS011;59475;52.464;13.590;2022-10-31T06:43:04;17.60;;;12.93;;
71626;SDS011;59475;52.464;13.590;2022-10-31T06:45:29;21.40;;;13.03;;
71626;SDS011;59475;52.464;13.590;2022-10-31T06:47:55;20.90;;;12.03;;
71626;SDS011;59475;52.464;13.590;2022-10-31T06:50:21;23.17;;;12.05;;
71626;SDS011;59475;52.464;13.590;2022-10-31T06:52:54;19.27;;;11.85;;
71626;SDS011;59475;52.464;13.590;2022-10-31T06:55:22;19.13;;;11.90;;
71626;SDS011;59475;52.464;13.590;2022-10-31T06:57:56;17.70;;;11.75;;
71626;SDS011;59475;52.464;13.590;2022-10-31T07:00:26;20.35;;;12.10;;
71626;SDS011;59475;52.464;13.590;2022-10-31T07:02:59;21.33;;;13.00;;
71626;SDS011;59475;52.464;13.590;2022-10-31T07:05:26;19.40;;;12.70;;
71626;SDS011;59475;52.464;13.590;2022-10-31T07:08:02;19.83;;;11.57;;
71626;SDS011;59475;52.464;13.590;2022-10-31T07:10:30;20.23;;;12.63;;
71626;SDS011;59475;52.464;13.590;2022-10-31T07:12:57;20.77;;;13.38;;
71626;SDS011;59475;52.464;13.590;2022-10-31T07:15:24;20.52;;;13.30;;
71626;SDS011;59475;52.464;13.590;2022-10-31T07:17:51;26.85;;;13.52;;
71626;SDS011;59475;52.464;13.590;2022-10-31T07:20:17;19.37;;;12.87;;
71626;SDS011;59475;52.464;13.590;2022-10-31T07:22:42;20.20;;;13.55;;
71626;SDS011;59475;52.464;13.590;2022-10-31T07:25:08;28.20;;;16.03;;
71626;SDS011;59475;52.464;13.590;2022-10-31T07:27:40;22.15;;;14.23;;
71626;SDS011;59475;52.464;13.590;2022-10-31T07:30:06;22.30;;;13.90;;
71626;SDS011;59475;52.464;13.590;2022-10-31T07:32:37;20.70;;;13.52;;
71626;SDS011;59475;52.464;13.590;2022-10-31T07:35:07;22.50;;;14.40;;
71626;SDS011;59475;52.464;13.590;2022-10-31T07:37:33;24.05;;;14.18;;
71626;SDS011;59475;52.464;13.590;2022-10-31T07:39:59;21.93;;;14.30;;
71626;SDS011;59475;52.464;13.590;2022-10-31T07:42:24;20.77;;;14.73;;
71626;SDS011;59475;52.464;13.590;2022-10-31T07:44:49;25.50;;;15.63;;
71626;SDS011;59475;52.464;13.590;2022-10-31T07:47:15;27.13;;;16.87;;
71626;SDS011;59475;52.464;13.590;2022-10-31T07:49:40;26.27;;;16.87;;
71626;SDS011;59475;52.464;13.590;2022-10-31T07:52:05;33.35;;;18.10;;
71626;SDS011;59475;52.464;13.590;2022-10-31T07:54:30;38.47;;;21.20;;
71626;SDS011;59475;52.464;13.590;2022-10-31T07:56:56;42.57;;;22.13;;
71626;SDS011;59475;52.464;13.590;2022-10-31T07:59:21;37.30;;;22.07;;
71626;SDS011;59475;52.464;13.590;2022-10-31T08:01:47;46.20;;;25.50;;
71626;SDS011;59475;52.464;13.590;2022-10-31T08:04:12;49.80;;;26.87;;
71626;SDS011;59475;52.464;13.590;2022-10-31T08:06:37;39.78;;;20.20;;
71626;SDS011;59475;52.464;13.590;2022-10-31T08:09:03;30.83;;;18.53;;
71626;SDS011;59475;52.464;13.590;2022-10-31T08:11:28;29.10;;;17.40;;
71626;SDS011;59475;52.464;13.590;2022-10-31T08:13:53;25.80;;;16.93;;
71626;SDS011;59475;52.464;13.590;2022-10-31T08:16:19;26.90;;;16.70;;
71626;SDS011;59475;52.464;13.590;2022-10-31T08:18:44;30.67;;;18.30;;
71626;SDS011;59475;52.464;13.590;2022-10-31T08:21:09;31.75;;;17.05;;
71626;SDS011;59475;52.464;13.590;2022-10-31T08:23:35;35.10;;;16.57;;
71626;SDS011;59475;52.464;13.590;2022-10-31T08:26:00;25.07;;;16.73;;
71626;SDS011;59475;52.464;13.590;2022-10-31T08:28:26;31.00;;;16.90;;
71626;SDS011;59475;52.464;13.590;2022-10-31T08:30:51;29.67;;;17.00;;
71626;SDS011;59475;52.464;13.590;2022-10-31T08:33:17;30.03;;;17.03;;
71626;SDS011;59475;52.464;13.590;2022-10-31T08:35:43;32.05;;;17.98;;
71626;SDS011;59475;52.464;13.590;2022-10-31T08:38:10;29.97;;;18.43;;
71626;SDS011;59475;52.464;13.590;2022-10-31T08:40:37;35.60;;;18.60;;
71626;SDS011;59475;52.464;13.590;2022-10-31T08:43:04;29.95;;;17.05;;
71626;SDS011;59475;52.464;13.590;2022-10-31T08:45:32;31.75;;;17.85;;
71626;SDS011;59475;52.464;13.590;2022-10-31T08:48:09;35.67;;;19.73;;
71626;SDS011;59475;52.464;13.590;2022-10-31T08:50:36;29.50;;;18.20;;
71626;SDS011;59475;52.464;13.590;2022-10-31T08:53:06;30.95;;;18.23;;
71626;SDS011;59475;52.464;13.590;2022-10-31T08:55:34;29.45;;;18.45;;
71626;SDS011;59475;52.464;13.590;2022-10-31T08:58:00;33.40;;;17.63;;
71626;SDS011;59475;52.464;13.590;2022-10-31T09:00:26;29.05;;;18.10;;
71626;SDS011;59475;52.464;13.590;2022-10-31T09:02:58;33.23;;;18.00;;
71626;SDS011;59475;52.464;13.590;2022-10-31T09:05:25;40.10;;;20.23;;
71626;SDS011;59475;52.464;13.590;2022-10-31T09:07:51;30.50;;;19.65;;
71626;SDS011;59475;52.464;13.590;2022-10-31T09:10:16;37.17;;;17.90;;
71626;SDS011;59475;52.464;13.590;2022-10-31T09:12:41;38.37;;;20.43;;
71626;SDS011;59475;52.464;13.590;2022-10-31T09:15:07;29.13;;;17.33;;
71626;SDS011;59475;52.464;13.590;2022-10-31T09:17:33;31.15;;;16.73;;
71626;SDS011;59475;52.464;13.590;2022-10-31T09:19:58;30.10;;;17.00;;
71626;SDS011;59475;52.464;13.590;2022-10-31T09:22:23;34.27;;;17.33;;
71626;SDS011;59475;52.464;13.590;2022-10-31T09:24:49;28.80;;;16.83;;
71626;SDS011;59475;52.464;13.590;2022-10-31T09:27:15;33.17;;;16.67;;
71626;SDS011;59475;52.464;13.590;2022-10-31T09:29:41;31.95;;;16.85;;
71626;SDS011;59475;52.464;13.590;2022-10-31T09:32:07;36.93;;;20.03;;
71626;SDS011;59475;52.464;13.590;2022-10-31T09:34:32;32.90;;;16.88;;
71626;SDS011;59475;52.464;13.590;2022-10-31T09:36:57;32.87;;;18.87;;
71626;SDS011;59475;52.464;13.590;2022-10-31T09:39:23;33.13;;;18.33;;
71626;SDS011;59475;52.464;13.590;2022-10-31T09:52:44;38.88;;;20.05;;
71626;SDS011;59475;52.464;13.590;2022-10-31T09:55:30;35.90;;;19.38;;
71626;SDS011;59475;52.464;13.590;2022-10-31T09:58:00;37.88;;;19.48;;
71626;SDS011;59475;52.464;13.590;2022-10-31T10:00:26;42.43;;;24.97;;
71626;SDS011;59475;52.464;13.590;2022-10-31T10:08:12;36.53;;;19.27;;
71626;SDS011;59475;52.464;13.590;2022-10-31T10:13:42;35.30;;;17.35;;
71626;SDS011;59475;52.464;13.590;2022-10-31T10:16:30;34.22;;;18.63;;
71626;SDS011;59475;52.464;13.590;2022-10-31T10:19:26;31.40;;;18.83;;
71626;SDS011;59475;52.464;13.590;2022-10-31T10:22:02;34.27;;;19.60;;
71626;SDS011;59475;52.464;13.590;2022-10-31T10:28:20;36.08;;;19.70;;
71626;SDS011;59475;52.464;13.590;2022-10-31T10:30:49;31.75;;;19.52;;
71626;SDS011;59475;52.464;13.590;2022-10-31T10:33:19;35.03;;;19.45;;
71626;SDS011;59475;52.464;13.590;2022-10-31T10:36:08;32.80;;;18.93;;
71626;SDS011;59475;52.464;13.590;2022-10-31T10:38:58;38.05;;;20.00;;
71626;SDS011;59475;52.464;13.590;2022-10-31T10:41:29;32.38;;;17.75;;
71626;SDS011;59475;52.464;13.590;2022-10-31T10:43:57;32.70;;;19.30;;
71626;SDS011;59475;52.464;13.590;2022-10-31T10:46:41;31.10;;;18.93;;
71626;SDS011;59475;52.464;13.590;2022-10-31T10:52:16;30.20;;;16.87;;
71626;SDS011;59475;52.464;13.590;2022-10-31T11:02:45;31.17;;;16.60;;
71626;SDS011;59475;52.464;13.590;2022-10-31T11:05:33;37.63;;;18.30;;
71626;SDS011;59475;52.464;13.590;2022-10-31T11:08:29;33.00;;;17.98;;
71626;SDS011;59475;52.464;13.590;2022-10-31T11:10:57;89.72;;;42.92;;
71626;SDS011;59475;52.464;13.590;2022-10-31T11:13:24;39.80;;;20.50;;
71626;SDS011;59475;52.464;13.590;2022-10-31T11:16:05;36.77;;;19.53;;
71626;SDS011;59475;52.464;13.590;2022-10-31T11:18:34;35.17;;;18.50;;
71626;SDS011;59475;52.464;13.590;2022-10-31T11:21:04;40.33;;;21.38;;
71626;SDS011;59475;52.464;13.590;2022-10-31T11:23:30;36.10;;;20.50;;
71626;SDS011;59475;52.464;13.590;2022-10-31T11:28:26;37.00;;;18.17;;
71626;SDS011;59475;52.464;13.590;2022-10-31T11:30:58;33.10;;;19.50;;
71626;SDS011;59475;52.464;13.590;2022-10-31T11:33:29;36.67;;;18.35;;
71626;SDS011;59475;52.464;13.590;2022-10-31T11:35:57;31.35;;;17.08;;
71626;SDS011;59475;52.464;13.590;2022-10-31T11:38:28;29.60;;;18.00;;
71626;SDS011;59475;52.464;13.590;2022-10-31T11:40:59;30.17;;;17.17;;
71626;SDS011;59475;52.464;13.590;2022-10-31T11:43:33;33.70;;;16.90;;
71626;SDS011;59475;52.464;13.590;2022-10-31T11:45:58;35.07;;;16.57;;
71626;SDS011;59475;52.464;13.590;2022-10-31T11:48:24;27.98;;;16.58;;
71626;SDS011;59475;52.464;13.590;2022-10-31T11:50:51;29.33;;;17.65;;
71626;SDS011;59475;52.464;13.590;2022-10-31T11:53:24;29.70;;;16.13;;
71626;SDS011;59475;52.464;13.590;2022-10-31T11:56:04;26.88;;;16.48;;
71626;SDS011;59475;52.464;13.590;2022-10-31T11:58:40;31.05;;;17.20;;
71626;SDS011;59475;52.464;13.590;2022-10-31T12:01:20;27.35;;;16.05;;
71626;SDS011;59475;52.464;13.590;2022-10-31T12:04:10;33.65;;;16.70;;
71626;SDS011;59475;52.464;13.590;2022-10-31T12:06:37;37.23;;;18.80;;
71626;SDS011;59475;52.464;13.590;2022-10-31T12:09:11;36.00;;;17.42;;
71626;SDS011;59475;52.464;13.590;2022-10-31T12:17:21;32.92;;;17.55;;
71626;SDS011;59475;52.464;13.590;2022-10-31T12:25:42;29.95;;;16.35;;
71626;SDS011;59475;52.464;13.590;2022-10-31T12:37:15;32.42;;;17.38;;
71626;SDS011;59475;52.464;13.590;2022-10-31T12:40:17;30.27;;;15.85;;
71626;SDS011;59475;52.464;13.590;2022-10-31T12:45:35;32.78;;;18.17;;
71626;SDS011;59475;52.464;13.590;2022-10-31T12:59:08;46.45;;;27.25;;
71626;SDS011;59475;52.464;13.590;2022-10-31T13:01:45;35.80;;;19.73;;
71626;SDS011;59475;52.464;13.590;2022-10-31T13:04:18;66.85;;;36.35;;
71626;SDS011;59475;52.464;13.590;2022-10-31T13:06:59;40.67;;;21.05;;
71626;SDS011;59475;52.464;13.590;2022-10-31T13:09:40;37.80;;;19.38;;
71626;SDS011;59475;52.464;13.590;2022-10-31T13:12:20;34.50;;;18.55;;
71626;SDS011;59475;52.464;13.590;2022-10-31T13:14:54;31.13;;;18.83;;
71626;SDS011;59475;52.464;13.590;2022-10-31T13:17:29;32.75;;;18.58;;
71626;SDS011;59475;52.464;13.590;2022-10-31T13:22:38;43.95;;;25.27;;
71626;SDS011;59475;52.464;13.590;2022-10-31T13:30:33;37.05;;;18.92;;
71626;SDS011;59475;52.464;13.590;2022-10-31T13:38:57;34.42;;;20.00;;
71626;SDS011;59475;52.464;13.590;2022-10-31T13:44:12;32.72;;;20.00;;
71626;SDS011;59475;52.464;13.590;2022-10-31T13:46:48;37.15;;;20.55;;
71626;SDS011;59475;52.464;13.590;2022-10-31T13:51:49;30.23;;;18.05;;
71626;SDS011;59475;52.464;13.590;2022-10-31T13:54:29;30.27;;;18.33;;
71626;SDS011;59475;52.464;13.590;2022-10-31T13:56:57;29.92;;;18.27;;
71626;SDS011;59475;52.464;13.590;2022-10-31T13:59:23;36.63;;;18.90;;
71626;SDS011;59475;52.464;13.590;2022-10-31T14:01:58;32.63;;;18.77;;
71626;SDS011;59475;52.464;13.590;2022-10-31T14:12:03;34.13;;;18.10;;
71626;SDS011;59475;52.464;13.590;2022-10-31T14:14:41;32.20;;;17.27;;
71626;SDS011;59475;52.464;13.590;2022-10-31T14:17:44;30.52;;;15.93;;
71626;SDS011;59475;52.464;13.590;2022-10-31T14:22:36;23.30;;;14.23;;
71626;SDS011;59475;52.464;13.590;2022-10-31T14:25:25;25.23;;;13.93;;
71626;SDS011;59475;52.464;13.590;2022-10-31T14:27:50;29.10;;;14.20;;
71626;SDS011;59475;52.464;13.590;2022-10-31T14:30:18;26.35;;;15.35;;
71626;SDS011;59475;52.464;13.590;2022-10-31T14:32:51;28.95;;;13.80;;
71626;SDS011;59475;52.464;13.590;2022-10-31T14:35:19;23.02;;;13.30;;
71626;SDS011;59475;52.464;13.590;2022-10-31T14:37:56;20.35;;;12.75;;
71626;SDS011;59475;52.464;13.590;2022-10-31T14:40:35;19.33;;;13.03;;
71626;SDS011;59475;52.464;13.590;2022-10-31T14:43:33;21.77;;;11.80;;
71626;SDS011;59475;52.464;13.590;2022-10-31T14:50:59;21.52;;;12.93;;
71626;SDS011;59475;52.464;13.590;2022-10-31T14:53:29;23.05;;;12.27;;
71626;SDS011;59475;52.464;13.590;2022-10-31T14:55:57;21.17;;;11.93;;
71626;SDS011;59475;52.464;13.590;2022-10-31T14:58:28;21.23;;;11.50;;
71626;SDS011;59475;52.464;13.590;2022-10-31T15:01:02;20.55;;;11.60;;
71626;SDS011;59475;52.464;13.590;2022-10-31T15:03:35;19.65;;;10.93;;
71626;SDS011;59475;52.464;13.590;2022-10-31T15:06:05;20.05;;;11.43;;
71626;SDS011;59475;52.464;13.590;2022-10-31T15:08:46;20.60;;;11.17;;
71626;SDS011;59475;52.464;13.590;2022-10-31T15:13:42;22.27;;;11.37;;
71626;SDS011;59475;52.464;13.590;2022-10-31T15:18:49;22.10;;;11.23;;
71626;SDS011;59475;52.464;13.590;2022-10-31T15:21:20;15.05;;;9.82;;
71626;SDS011;59475;52.464;13.590;2022-10-31T15:23:47;20.00;;;10.15;;
71626;SDS011;59475;52.464;13.590;2022-10-31T15:26:16;20.40;;;11.60;;
71626;SDS011;59475;52.464;13.590;2022-10-31T15:28:43;20.27;;;11.68;;
71626;SDS011;59475;52.464;13.590;2022-10-31T15:31:13;23.35;;;11.27;;
71626;SDS011;59475;52.464;13.590;2022-10-31T15:33:41;20.13;;;11.30;;
71626;SDS011;59475;52.464;13.590;2022-10-31T15:36:17;19.10;;;11.15;;
71626;SDS011;59475;52.464;13.590;2022-10-31T15:38:47;16.23;;;10.37;;
71626;SDS011;59475;52.464;13.590;2022-10-31T15:41:22;20.35;;;10.48;;
71626;SDS011;59475;52.464;13.590;2022-10-31T15:43:52;19.05;;;11.38;;
71626;SDS011;59475;52.464;13.590;2022-10-31T15:46:19;18.77;;;10.95;;
71626;SDS011;59475;52.464;13.590;2022-10-31T15:48:45;18.53;;;10.60;;
71626;SDS011;59475;52.464;13.590;2022-10-31T15:51:12;19.50;;;10.93;;
71626;SDS011;59475;52.464;13.590;2022-10-31T15:53:42;21.77;;;11.32;;
71626;SDS011;59475;52.464;13.590;2022-10-31T15:56:18;21.73;;;10.63;;
71626;SDS011;59475;52.464;13.590;2022-10-31T15:58:48;21.60;;;10.80;;
71626;SDS011;59475;52.464;13.590;2022-10-31T16:01:26;24.02;;;11.98;;
71626;SDS011;59475;52.464;13.590;2022-10-31T16:04:00;22.88;;;12.80;;
71626;SDS011;59475;52.464;13.590;2022-10-31T16:06:27;19.85;;;10.68;;
71626;SDS011;59475;52.464;13.590;2022-10-31T16:08:53;19.00;;;11.27;;
71626;SDS011;59475;52.464;13.590;2022-10-31T16:11:23;23.65;;;11.40;;
71626;SDS011;59475;52.464;13.590;2022-10-31T16:14:04;26.88;;;13.00;;
71626;SDS011;59475;52.464;13.590;2022-10-31T16:16:33;27.30;;;14.27;;
71626;SDS011;59475;52.464;13.590;2022-10-31T16:19:05;20.83;;;12.93;;
71626;SDS011;59475;52.464;13.590;2022-10-31T16:21:40;20.38;;;11.80;;
71626;SDS011;59475;52.464;13.590;2022-10-31T16:26:54;35.15;;;15.43;;
71626;SDS011;59475;52.464;13.590;2022-10-31T16:29:27;21.20;;;13.77;;
71626;SDS011;59475;52.464;13.590;2022-10-31T16:31:57;21.87;;;11.73;;
71626;SDS011;59475;52.464;13.590;2022-10-31T16:34:23;27.25;;;13.90;;
71626;SDS011;59475;52.464;13.590;2022-10-31T16:36:48;23.60;;;13.83;;
71626;SDS011;59475;52.464;13.590;2022-10-31T16:39:14;21.98;;;12.57;;
71626;SDS011;59475;52.464;13.590;2022-10-31T16:41:42;22.48;;;13.13;;
71626;SDS011;59475;52.464;13.590;2022-10-31T16:44:23;22.27;;;13.80;;
71626;SDS011;59475;52.464;13.590;2022-10-31T16:47:07;21.90;;;13.67;;